Time;durP1;ratioP1;P1;durP2;ratioP2;P2;SDS_P1;SDS_P2;PMS_P1;PMS_P2;Temp;Humidity;BMP_temperature;BMP_pressure;BME280_temperature;BME280_humidity;BME280_pressure;Samples;Min_cycle;Max_cycle;Signal;HPM_P1;HPM_P2
2020/12/22 00:01:36;;;;;;;0.20;0.20;;;10.40;99.90;;;;;;5015244;28;20202;-84
2020/12/22 00:04:02;;;;;;;0.10;0.10;;;10.40;99.90;;;;;;5016397;28;20182;-85
2020/12/22 00:06:28;;;;;;;0.10;0.10;;;10.40;99.90;;;;;;5032514;28;20192;-85
2020/12/22 00:08:53;;;;;;;0.10;0.10;;;10.40;99.90;;;;;;5032980;28;20225;-85
2020/12/22 00:11:19;;;;;;;0.20;0.20;;;10.40;99.90;;;;;;5019891;28;20195;-84
2020/12/22 00:13:45;;;;;;;0.10;0.10;;;10.50;99.90;;;;;;5032648;28;20239;-85
2020/12/22 00:16:11;;;;;;;0.10;0.10;;;10.40;99.90;;;;;;5015101;28;20208;-85
2020/12/22 00:18:37;;;;;;;0.03;0.03;;;10.40;99.90;;;;;;5015648;28;20542;-85
2020/12/22 00:21:02;;;;;;;0.10;0.10;;;10.50;99.90;;;;;;5014900;28;20654;-84
2020/12/22 00:23:29;;;;;;;0.10;0.10;;;10.50;99.90;;;;;;5015593;28;20218;-85
2020/12/22 00:25:55;;;;;;;0.10;0.10;;;10.50;99.90;;;;;;5015352;28;20219;-85
2020/12/22 00:28:21;;;;;;;0.10;0.10;;;10.60;99.90;;;;;;5031682;28;20192;-84
2020/12/22 00:30:49;;;;;;;0.07;0.07;;;10.60;99.90;;;;;;5013006;28;20192;-85
2020/12/22 00:33:14;;;;;;;0.03;0.03;;;10.70;99.90;;;;;;5014358;28;20677;-84
2020/12/22 00:35:40;;;;;;;0.20;0.17;;;10.70;99.90;;;;;;5031198;28;20179;-85
2020/12/22 00:38:05;;;;;;;0.10;0.10;;;10.70;99.90;;;;;;5028965;28;20270;-85
2020/12/22 00:40:31;;;;;;;0.10;0.10;;;10.70;99.90;;;;;;5014604;28;20210;-85
2020/12/22 00:43:00;;;;;;;0.10;0.10;;;10.70;99.90;;;;;;5032560;28;20221;-85
2020/12/22 00:45:26;;;;;;;0.13;0.13;;;10.80;99.90;;;;;;5014643;28;20194;-85
2020/12/22 00:47:52;;;;;;;0.10;0.10;;;10.80;99.90;;;;;;5015649;28;20240;-85
2020/12/22 00:50:17;;;;;;;0.10;0.10;;;10.80;99.90;;;;;;5010463;28;20193;-84
2020/12/22 00:52:43;;;;;;;0.10;0.10;;;10.60;99.90;;;;;;5014747;28;20701;-84
2020/12/22 00:55:08;;;;;;;0.10;0.10;;;10.40;99.90;;;;;;5032011;28;20206;-84
2020/12/22 00:57:34;;;;;;;0.10;0.10;;;10.40;99.90;;;;;;5013726;28;20288;-84
2020/12/22 00:59:59;;;;;;;0.30;0.27;;;10.60;99.90;;;;;;5026418;28;20185;-85
2020/12/22 01:02:25;;;;;;;0.20;0.20;;;10.60;99.90;;;;;;5029901;28;20688;-85
2020/12/22 01:04:51;;;;;;;0.07;0.07;;;10.60;99.90;;;;;;5008470;28;20286;-84
2020/12/22 01:07:17;;;;;;;0.10;0.10;;;10.60;99.90;;;;;;5027137;28;20188;-84
2020/12/22 01:09:44;;;;;;;0.20;0.20;;;10.60;99.90;;;;;;5017258;28;20181;-84
2020/12/22 01:12:10;;;;;;;0.10;0.10;;;10.70;99.90;;;;;;5015205;28;20211;-83
2020/12/22 01:14:35;;;;;;;0.77;0.20;;;10.60;99.90;;;;;;5031925;28;20184;-84
2020/12/22 01:17:01;;;;;;;0.00;0.00;;;10.70;99.90;;;;;;5031753;28;20189;-84
2020/12/22 01:19:28;;;;;;;0.10;0.10;;;10.70;99.90;;;;;;5032459;28;20188;-85
2020/12/22 01:21:54;;;;;;;0.10;0.10;;;10.60;99.90;;;;;;5032805;28;20237;-85
2020/12/22 01:24:23;;;;;;;0.10;0.10;;;10.70;99.90;;;;;;5014517;28;20556;-84
2020/12/22 01:26:50;;;;;;;0.10;0.10;;;10.60;99.90;;;;;;5012662;28;20200;-84
2020/12/22 01:29:16;;;;;;;0.10;0.10;;;10.70;99.90;;;;;;5032315;28;20190;-84
2020/12/22 01:31:41;;;;;;;0.10;0.10;;;10.70;99.90;;;;;;5030006;28;20245;-84
2020/12/22 01:34:07;;;;;;;0.10;0.10;;;10.80;99.90;;;;;;5030528;28;20293;-84
2020/12/22 01:36:33;;;;;;;0.10;0.10;;;10.80;99.90;;;;;;5012510;28;20185;-84
2020/12/22 01:38:58;;;;;;;0.10;0.10;;;10.90;99.90;;;;;;5030706;28;20189;-84
2020/12/22 01:41:24;;;;;;;0.10;0.10;;;10.90;99.90;;;;;;5012139;28;20885;-84
2020/12/22 01:44:07;;;;;;;0.10;0.10;;;10.90;99.90;;;;;;5013236;28;20613;-84
2020/12/22 01:46:35;;;;;;;0.10;0.10;;;10.90;99.90;;;;;;5013393;28;20220;-84
2020/12/22 01:49:03;;;;;;;0.20;0.20;;;11.00;99.90;;;;;;5031141;28;20196;-84
2020/12/22 01:51:30;;;;;;;0.10;0.10;;;10.90;99.90;;;;;;5012664;28;20225;-84
2020/12/22 01:53:55;;;;;;;0.00;0.00;;;10.90;99.90;;;;;;5012822;28;20202;-84
2020/12/22 01:56:22;;;;;;;0.10;0.10;;;10.90;99.90;;;;;;5013392;28;20602;-85
2020/12/22 01:58:49;;;;;;;0.00;0.00;;;11.00;99.90;;;;;;5031083;28;20233;-84
2020/12/22 02:01:15;;;;;;;0.00;0.00;;;10.80;99.90;;;;;;5030401;28;20276;-84
2020/12/22 02:03:40;;;;;;;0.00;0.00;;;10.90;99.90;;;;;;5012248;28;20679;-84
2020/12/22 02:06:06;;;;;;;0.10;0.10;;;11.00;99.90;;;;;;5028618;28;20186;-85
2020/12/22 02:08:32;;;;;;;0.10;0.10;;;11.00;99.90;;;;;;5025898;28;20184;-84
2020/12/22 02:11:32;;;;;;;0.13;0.13;;;11.10;99.90;;;;;;5015785;28;20196;-84
2020/12/22 02:13:59;;;;;;;0.10;0.10;;;11.10;99.90;;;;;;5012572;28;20606;-85
2020/12/22 02:16:25;;;;;;;0.07;0.07;;;11.10;99.90;;;;;;5012814;28;20191;-84
2020/12/22 02:18:52;;;;;;;0.10;0.10;;;11.20;99.90;;;;;;5013081;28;20249;-84
2020/12/22 02:21:19;;;;;;;0.10;0.10;;;11.20;99.90;;;;;;5029121;28;20209;-84
2020/12/22 02:23:48;;;;;;;0.10;0.10;;;11.30;99.90;;;;;;5013197;28;20341;-84
2020/12/22 02:26:14;;;;;;;0.10;0.10;;;11.30;99.90;;;;;;5012465;28;20197;-84
2020/12/22 02:28:40;;;;;;;0.10;0.10;;;11.30;99.90;;;;;;5030286;28;20183;-84
2020/12/22 02:31:06;;;;;;;0.10;0.10;;;11.30;99.90;;;;;;5012466;28;20213;-85
2020/12/22 02:33:31;;;;;;;0.20;0.20;;;11.30;99.90;;;;;;5030796;28;20226;-84
2020/12/22 02:35:57;;;;;;;0.10;0.10;;;11.20;99.90;;;;;;5029975;28;20189;-84
2020/12/22 02:38:23;;;;;;;0.10;0.10;;;11.10;99.90;;;;;;5008619;28;20260;-84
2020/12/22 02:40:48;;;;;;;0.10;0.10;;;11.00;99.90;;;;;;5011222;28;20254;-84
2020/12/22 02:43:14;;;;;;;0.10;0.10;;;11.10;99.90;;;;;;5012199;28;20216;-84
2020/12/22 02:45:42;;;;;;;0.10;0.10;;;11.10;99.90;;;;;;5030749;28;20191;-85
2020/12/22 02:48:09;;;;;;;0.10;0.10;;;11.10;99.90;;;;;;5030200;28;20686;-83
2020/12/22 02:50:35;;;;;;;0.10;0.10;;;11.10;99.90;;;;;;5012532;28;20269;-85
2020/12/22 02:53:00;;;;;;;0.17;0.17;;;11.20;99.90;;;;;;5027743;28;20302;-84
2020/12/22 02:55:26;;;;;;;0.10;0.10;;;11.20;99.90;;;;;;5012381;28;20195;-84
2020/12/22 02:57:52;;;;;;;0.13;0.10;;;11.20;99.90;;;;;;5029646;28;20200;-84
2020/12/22 03:00:18;;;;;;;0.10;0.10;;;11.20;99.90;;;;;;5030061;28;20196;-85
2020/12/22 03:02:44;;;;;;;0.10;0.10;;;11.20;99.90;;;;;;5013491;28;20751;-84
2020/12/22 03:05:09;;;;;;;0.10;0.10;;;11.30;99.90;;;;;;5026515;28;20182;-84
2020/12/22 03:07:35;;;;;;;0.10;0.10;;;11.30;99.90;;;;;;5029801;28;20271;-85
2020/12/22 03:10:00;;;;;;;0.10;0.10;;;11.10;99.90;;;;;;5016763;28;20310;-84
2020/12/22 03:12:26;;;;;;;0.10;0.10;;;11.10;99.90;;;;;;5029684;28;20216;-85
2020/12/22 03:14:51;;;;;;;0.10;0.10;;;11.20;99.90;;;;;;5013341;28;20221;-84
2020/12/22 03:17:18;;;;;;;0.10;0.10;;;11.20;99.90;;;;;;5012176;28;20608;-84
2020/12/22 03:19:43;;;;;;;0.10;0.10;;;11.20;99.90;;;;;;5029790;28;20228;-84
2020/12/22 03:22:09;;;;;;;0.20;0.20;;;11.30;99.90;;;;;;5032025;28;20212;-84
2020/12/22 03:24:35;;;;;;;0.10;0.10;;;11.40;99.90;;;;;;5029227;28;20187;-84
2020/12/22 03:27:00;;;;;;;0.10;0.10;;;11.30;99.90;;;;;;5030199;28;20642;-84
2020/12/22 03:29:26;;;;;;;0.10;0.10;;;11.30;99.90;;;;;;5026164;28;20192;-86
2020/12/22 03:31:51;;;;;;;0.10;0.10;;;11.30;99.90;;;;;;5028659;28;20290;-84
2020/12/22 03:34:17;;;;;;;0.10;0.10;;;11.30;99.90;;;;;;5030864;28;20189;-84
2020/12/22 03:36:43;;;;;;;0.10;0.10;;;11.30;99.90;;;;;;5028015;28;20186;-84
2020/12/22 03:39:09;;;;;;;0.10;0.10;;;11.40;99.90;;;;;;5012204;28;20240;-84
2020/12/22 03:41:35;;;;;;;0.07;0.07;;;11.40;99.90;;;;;;5011401;28;20181;-84
2020/12/22 03:44:00;;;;;;;0.00;0.00;;;11.30;99.90;;;;;;5011705;28;20190;-84
2020/12/22 03:46:26;;;;;;;0.00;0.00;;;11.40;99.90;;;;;;5025390;28;20653;-83
2020/12/22 03:48:52;;;;;;;0.20;0.20;;;11.40;99.90;;;;;;5011842;28;20188;-84
2020/12/22 03:51:17;;;;;;;0.20;0.20;;;11.50;99.90;;;;;;5011077;28;20215;-84
2020/12/22 03:53:43;;;;;;;0.10;0.10;;;11.50;99.90;;;;;;5030365;28;20576;-85
2020/12/22 03:56:09;;;;;;;0.10;0.10;;;11.50;99.90;;;;;;5011796;28;20193;-85
2020/12/22 03:58:34;;;;;;;0.17;0.17;;;11.60;99.90;;;;;;5010757;28;20195;-84
2020/12/22 04:01:00;;;;;;;0.10;0.10;;;11.60;99.90;;;;;;5010737;28;20193;-84
2020/12/22 04:03:25;;;;;;;0.10;0.10;;;11.60;99.90;;;;;;5010708;28;20215;-84
2020/12/22 04:05:51;;;;;;;0.03;0.03;;;11.60;99.90;;;;;;5012887;28;20203;-85
2020/12/22 04:08:18;;;;;;;0.10;0.10;;;11.60;99.90;;;;;;5009836;28;20190;-84
2020/12/22 04:10:43;;;;;;;0.40;0.40;;;11.60;99.90;;;;;;5033904;28;20184;-86
2020/12/22 04:13:09;;;;;;;0.00;0.00;;;11.60;99.90;;;;;;5033113;28;20219;-86
2020/12/22 04:15:35;;;;;;;0.10;0.10;;;11.70;99.90;;;;;;5015223;28;20181;-86
2020/12/22 04:18:01;;;;;;;0.07;0.07;;;11.70;99.90;;;;;;5033095;28;20579;-85
2020/12/22 04:20:27;;;;;;;0.10;0.10;;;11.70;99.90;;;;;;5032002;28;20189;-86
2020/12/22 04:22:52;;;;;;;0.10;0.10;;;11.70;99.90;;;;;;5035170;28;20232;-86
2020/12/22 04:25:18;;;;;;;0.00;0.00;;;11.60;99.90;;;;;;5013326;28;21186;-86
2020/12/22 04:27:43;;;;;;;0.00;0.00;;;11.60;99.90;;;;;;5024140;28;20187;-85
2020/12/22 04:30:09;;;;;;;0.10;0.10;;;11.60;99.90;;;;;;5015104;28;20196;-85
2020/12/22 04:32:35;;;;;;;0.10;0.10;;;11.60;99.90;;;;;;5014315;28;20212;-85
2020/12/22 04:35:00;;;;;;;0.10;0.10;;;11.60;99.90;;;;;;5010566;28;20561;-86
2020/12/22 04:37:26;;;;;;;0.10;0.10;;;11.60;99.90;;;;;;5029714;28;20185;-86
2020/12/22 04:39:52;;;;;;;0.10;0.10;;;11.60;99.90;;;;;;5011254;28;20577;-85
2020/12/22 04:42:20;;;;;;;0.00;0.00;;;11.60;99.90;;;;;;5013868;28;20243;-85
2020/12/22 04:44:49;;;;;;;0.10;0.10;;;11.60;99.90;;;;;;5015243;28;20189;-84
2020/12/22 04:47:16;;;;;;;0.10;0.10;;;11.70;99.90;;;;;;5015013;28;20191;-86
2020/12/22 04:49:43;;;;;;;0.10;0.10;;;11.70;99.90;;;;;;5006789;28;20183;-86
2020/12/22 04:52:13;;;;;;;0.10;0.10;;;11.70;99.90;;;;;;5025170;28;20584;-86
2020/12/22 04:54:39;;;;;;;0.10;0.10;;;11.70;99.90;;;;;;5029490;28;20176;-86
2020/12/22 04:57:07;;;;;;;0.10;0.10;;;11.80;99.90;;;;;;5015792;28;20215;-86
2020/12/22 04:59:33;;;;;;;0.10;0.10;;;11.80;99.90;;;;;;5031574;28;20648;-87
2020/12/22 05:02:00;;;;;;;0.07;0.07;;;11.80;99.90;;;;;;5012222;28;20220;-86
2020/12/22 05:04:36;;;;;;;0.00;0.00;;;11.70;99.90;;;;;;5013796;28;20282;-86
2020/12/22 05:07:03;;;;;;;0.03;0.03;;;11.70;99.90;;;;;;5007457;28;20182;-86
2020/12/22 05:09:31;;;;;;;0.10;0.10;;;11.70;99.90;;;;;;5015812;28;20189;-87
2020/12/22 05:11:57;;;;;;;0.20;0.20;;;11.80;99.90;;;;;;5035880;28;20236;-86
2020/12/22 05:14:25;;;;;;;0.10;0.10;;;11.90;99.90;;;;;;5031622;28;20253;-86
2020/12/22 05:16:50;;;;;;;0.10;0.10;;;11.90;99.90;;;;;;5010591;28;20201;-85
2020/12/22 05:19:19;;;;;;;0.10;0.10;;;11.90;99.90;;;;;;5032383;28;20261;-86
2020/12/22 05:21:46;;;;;;;0.10;0.10;;;12.00;99.90;;;;;;5030662;28;20223;-86
2020/12/22 05:24:13;;;;;;;0.43;0.10;;;12.00;99.90;;;;;;5014916;28;20185;-85
2020/12/22 05:26:41;;;;;;;0.10;0.10;;;12.00;99.90;;;;;;5030425;28;20179;-86
2020/12/22 05:29:10;;;;;;;0.10;0.10;;;12.00;99.90;;;;;;5024008;28;20186;-86
2020/12/22 05:31:41;;;;;;;0.07;0.07;;;12.00;99.90;;;;;;5030259;28;20293;-87
2020/12/22 05:34:10;;;;;;;0.10;0.10;;;12.10;99.90;;;;;;5014234;28;20213;-86
2020/12/22 05:36:38;;;;;;;0.10;0.10;;;12.10;99.90;;;;;;5031231;28;20585;-86
2020/12/22 05:39:07;;;;;;;0.10;0.10;;;12.10;99.90;;;;;;5030882;28;20263;-86
2020/12/22 05:41:35;;;;;;;0.03;0.03;;;12.20;99.90;;;;;;5031350;28;20239;-86
2020/12/22 05:44:01;;;;;;;0.10;0.10;;;12.10;99.90;;;;;;5032862;28;20209;-86
2020/12/22 05:46:29;;;;;;;0.03;0.03;;;12.20;99.90;;;;;;5010295;28;20179;-86
2020/12/22 05:49:00;;;;;;;0.20;0.20;;;12.20;99.90;;;;;;5013519;28;20646;-86
2020/12/22 05:51:26;;;;;;;0.13;0.13;;;12.20;99.90;;;;;;5031922;28;20293;-87
2020/12/22 05:53:53;;;;;;;0.10;0.10;;;12.20;99.90;;;;;;5030809;28;20272;-85
2020/12/22 05:56:21;;;;;;;0.10;0.10;;;12.20;99.90;;;;;;5031552;28;20174;-86
2020/12/22 05:58:47;;;;;;;0.10;0.10;;;12.20;99.90;;;;;;5032016;28;20177;-86
2020/12/22 06:01:13;;;;;;;0.10;0.10;;;12.20;99.90;;;;;;5030803;28;20211;-86
2020/12/22 06:03:39;;;;;;;0.10;0.10;;;12.20;99.90;;;;;;5010351;28;20708;-86
2020/12/22 06:06:07;;;;;;;0.10;0.10;;;12.20;99.90;;;;;;5013556;28;20189;-85
2020/12/22 06:08:34;;;;;;;0.10;0.10;;;12.20;99.90;;;;;;5027722;28;20213;-86
2020/12/22 06:11:03;;;;;;;0.10;0.10;;;12.20;99.90;;;;;;5013284;28;20196;-86
2020/12/22 06:13:29;;;;;;;0.10;0.10;;;12.20;99.90;;;;;;5011617;28;20931;-85
2020/12/22 06:15:55;;;;;;;0.10;0.10;;;12.20;99.90;;;;;;5028008;28;20194;-86
2020/12/22 06:18:21;;;;;;;0.10;0.10;;;12.20;99.90;;;;;;5013972;28;20186;-83
2020/12/22 06:20:46;;;;;;;0.10;0.10;;;12.20;99.90;;;;;;5015154;28;20676;-83
2020/12/22 06:23:12;;;;;;;0.10;0.10;;;12.20;99.90;;;;;;5032671;28;20593;-83
2020/12/22 06:25:38;;;;;;;0.10;0.10;;;12.20;99.90;;;;;;5011429;28;20190;-84
2020/12/22 06:28:03;;;;;;;0.10;0.10;;;12.20;99.90;;;;;;5014925;28;20733;-83
2020/12/22 06:30:33;;;;;;;0.10;0.10;;;12.20;99.90;;;;;;5011649;28;20696;-82
2020/12/22 06:33:20;;;;;;;0.10;0.10;;;12.20;99.90;;;;;;5014033;28;20246;-83
2020/12/22 06:36:06;;;;;;;0.10;0.10;;;12.20;99.90;;;;;;5011387;28;20529;-82
2020/12/22 06:38:58;;;;;;;0.10;0.10;;;12.20;99.90;;;;;;5014180;28;20210;-83
2020/12/22 06:41:33;;;;;;;0.00;0.00;;;12.30;99.90;;;;;;5031325;28;20178;-83
2020/12/22 06:44:10;;;;;;;0.10;0.10;;;12.30;99.90;;;;;;5032157;28;20215;-83
2020/12/22 06:46:38;;;;;;;0.10;0.10;;;12.20;99.90;;;;;;5028740;28;20188;-86
2020/12/22 06:49:05;;;;;;;0.10;0.10;;;12.20;99.90;;;;;;5030395;28;20188;-86
2020/12/22 06:51:35;;;;;;;0.10;0.10;;;12.20;99.90;;;;;;5029876;28;20689;-86
2020/12/22 06:54:13;;;;;;;0.10;0.10;;;12.20;99.90;;;;;;5012971;28;20178;-84
2020/12/22 06:56:43;;;;;;;0.10;0.10;;;12.20;99.90;;;;;;5012565;28;20181;-85
2020/12/22 06:59:13;;;;;;;0.10;0.10;;;12.20;99.90;;;;;;5012754;28;20273;-85
2020/12/22 07:01:45;;;;;;;0.10;0.10;;;12.20;99.90;;;;;;5028803;28;20188;-85
2020/12/22 07:04:18;;;;;;;0.10;0.10;;;12.30;99.90;;;;;;5012307;28;20271;-86
2020/12/22 07:06:46;;;;;;;0.00;0.00;;;12.20;99.90;;;;;;5013215;28;20209;-85
2020/12/22 07:09:20;;;;;;;0.00;0.00;;;12.20;99.90;;;;;;5031533;28;20282;-86
2020/12/22 07:11:47;;;;;;;0.10;0.10;;;12.30;99.90;;;;;;5033858;28;20237;-85
2020/12/22 07:14:18;;;;;;;0.10;0.10;;;12.20;99.90;;;;;;5028833;28;20746;-85
2020/12/22 07:16:55;;;;;;;0.07;0.07;;;12.30;99.90;;;;;;5008591;28;20186;-84
2020/12/22 07:19:30;;;;;;;0.00;0.00;;;12.30;99.90;;;;;;5011561;28;20181;-84
2020/12/22 07:21:57;;;;;;;0.00;0.00;;;12.30;99.90;;;;;;5030761;28;20236;-85
2020/12/22 07:24:25;;;;;;;0.07;0.07;;;12.30;99.90;;;;;;5029541;28;20193;-84
2020/12/22 07:26:50;;;;;;;0.10;0.10;;;12.30;99.90;;;;;;5030245;28;20240;-85
2020/12/22 07:29:16;;;;;;;0.10;0.10;;;12.30;99.90;;;;;;5010604;28;20189;-85
2020/12/22 07:31:42;;;;;;;0.10;0.10;;;12.20;99.90;;;;;;5029845;28;20209;-83
2020/12/22 07:34:09;;;;;;;0.00;0.00;;;12.30;99.90;;;;;;5017002;28;20225;-84
2020/12/22 07:36:34;;;;;;;0.10;0.10;;;12.30;99.90;;;;;;5032791;28;20213;-83
2020/12/22 07:39:21;;;;;;;0.10;0.10;;;12.30;99.90;;;;;;5035317;28;20616;-83
2020/12/22 07:41:47;;;;;;;0.30;0.30;;;12.30;99.90;;;;;;5018838;28;20264;-83
2020/12/22 07:44:15;;;;;;;0.10;0.10;;;12.30;99.90;;;;;;5027486;28;20192;-83
2020/12/22 07:46:43;;;;;;;0.10;0.10;;;12.30;99.90;;;;;;5023361;28;20197;-83
2020/12/22 07:49:10;;;;;;;0.10;0.10;;;12.30;99.90;;;;;;5038607;28;20188;-83
2020/12/22 07:51:36;;;;;;;0.10;0.10;;;12.30;99.90;;;;;;5039712;28;20267;-84
2020/12/22 07:54:06;;;;;;;0.10;0.10;;;12.40;99.90;;;;;;5039687;28;20259;-83
2020/12/22 07:56:39;;;;;;;0.00;0.00;;;12.30;99.90;;;;;;5040902;28;20592;-83
2020/12/22 07:59:10;;;;;;;0.10;0.10;;;12.30;99.90;;;;;;5037530;28;20206;-84
2020/12/22 08:01:46;;;;;;;0.17;0.17;;;12.40;99.90;;;;;;5037653;28;20903;-83
2020/12/22 08:04:17;;;;;;;0.10;0.10;;;12.40;99.90;;;;;;5040998;28;20218;-83
2020/12/22 08:06:54;;;;;;;0.20;0.20;;;12.40;99.90;;;;;;5034391;28;20231;-82
2020/12/22 08:09:24;;;;;;;0.10;0.10;;;12.40;99.90;;;;;;5020065;28;20181;-83
2020/12/22 08:11:52;;;;;;;0.10;0.10;;;12.40;99.90;;;;;;5018968;28;20221;-83
2020/12/22 08:14:20;;;;;;;0.00;0.00;;;12.40;99.90;;;;;;5040602;28;20213;-84
2020/12/22 08:16:48;;;;;;;0.00;0.00;;;12.40;99.90;;;;;;5021271;28;20237;-84
2020/12/22 08:19:14;;;;;;;0.13;0.13;;;12.40;99.90;;;;;;5023460;28;20661;-85
2020/12/22 08:21:39;;;;;;;0.27;0.27;;;12.50;99.90;;;;;;5018343;28;20216;-83
2020/12/22 08:24:05;;;;;;;0.10;0.10;;;12.50;99.90;;;;;;5020932;28;20255;-84
2020/12/22 08:26:31;;;;;;;0.10;0.10;;;12.50;99.90;;;;;;5022170;28;20199;-84
2020/12/22 08:28:57;;;;;;;0.20;0.20;;;12.50;99.90;;;;;;5041166;28;20200;-83
2020/12/22 08:31:26;;;;;;;0.23;0.23;;;12.50;99.90;;;;;;5021013;28;20220;-81
2020/12/22 08:33:58;;;;;;;0.10;0.10;;;12.60;99.90;;;;;;5015844;28;20197;-82
2020/12/22 08:36:27;;;;;;;0.00;0.00;;;12.60;99.90;;;;;;5033322;28;20182;-82
2020/12/22 08:39:16;;;;;;;0.10;0.10;;;12.60;99.90;;;;;;5030470;28;20592;-83
2020/12/22 08:41:43;;;;;;;0.10;0.10;;;12.70;99.90;;;;;;5030286;28;20270;-82
2020/12/22 08:44:10;;;;;;;0.10;0.10;;;12.70;99.90;;;;;;5032471;28;20292;-82
2020/12/22 08:46:37;;;;;;;0.10;0.10;;;12.80;99.90;;;;;;5015585;28;20254;-82
2020/12/22 08:49:11;;;;;;;0.10;0.10;;;12.80;99.90;;;;;;5021762;28;20190;-82
2020/12/22 08:51:37;;;;;;;1.33;0.20;;;12.80;99.90;;;;;;5019842;28;20225;-83
2020/12/22 08:54:03;;;;;;;0.10;0.10;;;12.80;99.90;;;;;;5033148;28;20178;-82
2020/12/22 08:56:29;;;;;;;0.00;0.00;;;12.80;99.90;;;;;;5014994;28;20189;-82
2020/12/22 08:58:59;;;;;;;0.20;0.20;;;12.90;99.90;;;;;;5033423;28;20182;-82
2020/12/22 09:01:27;;;;;;;0.20;0.20;;;12.90;99.90;;;;;;5029719;28;20182;-82
2020/12/22 09:03:58;;;;;;;0.10;0.10;;;12.90;99.90;;;;;;5015134;28;20254;-82
2020/12/22 09:06:47;;;;;;;0.10;0.10;;;12.90;99.90;;;;;;5015426;28;20423;-82
2020/12/22 09:09:22;;;;;;;0.10;0.10;;;12.90;99.90;;;;;;5035805;28;20203;-82
2020/12/22 09:11:48;;;;;;;0.20;0.20;;;13.00;99.90;;;;;;5014705;28;20217;-82
2020/12/22 09:14:18;;;;;;;0.40;0.40;;;13.00;99.90;;;;;;5033167;28;20185;-85
2020/12/22 09:16:44;;;;;;;0.83;0.23;;;13.10;99.90;;;;;;5014905;28;20186;-85
2020/12/22 09:19:09;;;;;;;0.73;0.37;;;13.00;99.90;;;;;;5015255;28;20232;-84
2020/12/22 09:21:35;;;;;;;0.30;0.30;;;13.00;99.90;;;;;;5013777;28;20537;-84
2020/12/22 09:24:00;;;;;;;0.23;0.10;;;13.10;99.90;;;;;;5014955;28;20693;-82
2020/12/22 09:26:26;;;;;;;0.30;0.30;;;13.10;99.90;;;;;;5032866;28;20244;-85
2020/12/22 09:28:52;;;;;;;0.20;0.20;;;13.20;99.90;;;;;;5032295;28;20723;-85
2020/12/22 09:31:27;;;;;;;0.30;0.27;;;13.20;99.90;;;;;;5014341;28;20189;-84
2020/12/22 09:33:53;;;;;;;0.30;0.30;;;13.20;99.90;;;;;;5014514;28;20174;-85
2020/12/22 09:36:19;;;;;;;0.10;0.10;;;13.20;99.90;;;;;;5014503;28;20191;-85
2020/12/22 09:38:44;;;;;;;0.20;0.20;;;13.20;99.90;;;;;;5014528;28;20178;-84
2020/12/22 09:41:10;;;;;;;0.53;0.23;;;13.20;99.90;;;;;;5030598;28;20192;-84
2020/12/22 09:43:36;;;;;;;0.10;0.10;;;13.30;99.90;;;;;;5011722;28;20198;-84
2020/12/22 09:46:01;;;;;;;0.10;0.10;;;13.30;99.90;;;;;;5013175;28;20696;-83
2020/12/22 09:48:27;;;;;;;0.30;0.20;;;13.40;99.90;;;;;;5012595;28;20190;-84
2020/12/22 09:50:52;;;;;;;0.10;0.10;;;13.40;99.90;;;;;;5003491;28;20182;-85
2020/12/22 09:53:19;;;;;;;0.10;0.10;;;13.40;99.90;;;;;;5009428;28;20260;-84
2020/12/22 09:55:44;;;;;;;0.10;0.10;;;13.50;99.90;;;;;;5027323;28;20189;-84
2020/12/22 09:58:10;;;;;;;0.03;0.03;;;13.50;99.90;;;;;;5028901;28;20186;-83
2020/12/22 10:00:35;;;;;;;0.20;0.20;;;13.60;99.90;;;;;;5010307;28;20179;-84
2020/12/22 10:03:01;;;;;;;0.10;0.10;;;13.70;99.90;;;;;;5030815;28;20288;-83
2020/12/22 10:05:27;;;;;;;0.10;0.10;;;13.70;99.90;;;;;;5025504;28;20187;-84
2020/12/22 10:07:52;;;;;;;0.03;0.03;;;13.70;99.90;;;;;;5011982;28;20189;-85
2020/12/22 10:10:18;;;;;;;0.27;0.03;;;13.60;99.90;;;;;;5017217;28;20235;-84
2020/12/22 10:12:43;;;;;;;0.10;0.10;;;13.70;99.90;;;;;;5029034;28;20596;-83
2020/12/22 10:15:09;;;;;;;0.10;0.10;;;13.70;99.90;;;;;;5011788;28;20196;-84
2020/12/22 10:17:34;;;;;;;0.10;0.10;;;13.80;99.90;;;;;;5012826;28;20352;-84
2020/12/22 10:20:00;;;;;;;0.10;0.10;;;13.80;99.90;;;;;;5028561;28;20252;-85
2020/12/22 10:22:29;;;;;;;0.47;0.10;;;13.80;99.90;;;;;;5025690;28;20850;-84
2020/12/22 10:24:55;;;;;;;0.30;0.30;;;13.80;99.90;;;;;;5011296;28;20197;-84
2020/12/22 10:27:20;;;;;;;0.10;0.10;;;13.80;99.90;;;;;;5029042;28;20197;-85
2020/12/22 10:29:46;;;;;;;0.10;0.10;;;13.80;99.90;;;;;;5012369;28;20190;-84
2020/12/22 10:32:11;;;;;;;0.43;0.10;;;13.80;99.90;;;;;;5012894;28;20236;-85
2020/12/22 10:34:37;;;;;;;0.10;0.10;;;13.90;99.90;;;;;;5010743;28;20182;-85
2020/12/22 10:37:03;;;;;;;0.20;0.10;;;13.90;99.90;;;;;;5031646;28;20183;-84
2020/12/22 10:39:29;;;;;;;0.10;0.10;;;14.00;99.90;;;;;;5010461;28;20187;-86
2020/12/22 10:41:55;;;;;;;0.10;0.10;;;14.00;99.90;;;;;;5012417;28;20220;-85
2020/12/22 10:44:21;;;;;;;0.10;0.10;;;14.10;99.90;;;;;;5009836;28;20190;-84
2020/12/22 10:46:47;;;;;;;0.10;0.10;;;14.10;99.90;;;;;;5011433;28;20182;-84
2020/12/22 10:49:13;;;;;;;0.20;0.20;;;14.10;99.90;;;;;;5010090;28;20200;-83
2020/12/22 10:51:39;;;;;;;0.10;0.10;;;14.20;99.90;;;;;;5012316;28;20237;-84
2020/12/22 10:54:04;;;;;;;0.10;0.10;;;14.30;99.90;;;;;;5013146;28;20269;-84
2020/12/22 10:56:30;;;;;;;0.20;0.20;;;14.30;99.90;;;;;;5030298;28;20248;-84
2020/12/22 10:58:58;;;;;;;0.13;0.13;;;14.40;99.90;;;;;;5011778;28;20189;-84
2020/12/22 11:01:23;;;;;;;0.10;0.10;;;14.50;99.90;;;;;;5009525;28;20205;-85
2020/12/22 11:03:49;;;;;;;0.30;0.30;;;14.50;99.90;;;;;;5021764;28;20565;-84
2020/12/22 11:06:22;;;;;;;0.10;0.10;;;14.60;99.90;;;;;;5002032;28;20193;-85
2020/12/22 11:08:48;;;;;;;0.10;0.10;;;14.60;99.90;;;;;;5012558;28;20281;-84
2020/12/22 11:11:14;;;;;;;0.27;0.27;;;14.60;99.90;;;;;;5016744;28;20194;-86
2020/12/22 11:13:40;;;;;;;0.00;0.00;;;14.60;99.90;;;;;;5012811;28;20268;-84
2020/12/22 11:16:10;;;;;;;0.10;0.10;;;14.60;99.90;;;;;;5028738;28;20273;-86
2020/12/22 11:18:37;;;;;;;0.17;0.17;;;14.70;99.90;;;;;;5032835;28;20211;-85
2020/12/22 11:21:09;;;;;;;0.10;0.10;;;14.70;99.90;;;;;;5031800;28;20193;-86
2020/12/22 11:23:35;;;;;;;0.13;0.13;;;14.70;99.90;;;;;;5036407;28;20734;-85
2020/12/22 11:26:00;;;;;;;0.30;0.30;;;14.80;99.90;;;;;;5033338;28;20269;-85
2020/12/22 11:28:26;;;;;;;0.10;0.10;;;14.80;99.90;;;;;;5014572;28;20188;-85
2020/12/22 11:30:52;;;;;;;0.10;0.10;;;14.90;99.90;;;;;;5030729;28;20217;-83
2020/12/22 11:33:17;;;;;;;0.10;0.10;;;14.90;99.90;;;;;;5014920;28;20252;-84
2020/12/22 11:35:43;;;;;;;0.10;0.10;;;14.90;99.90;;;;;;5014155;28;20194;-85
2020/12/22 11:38:08;;;;;;;0.20;0.20;;;14.90;99.90;;;;;;5013656;28;20181;-85
2020/12/22 11:40:34;;;;;;;0.10;0.10;;;15.00;99.90;;;;;;5022755;28;20181;-84
2020/12/22 11:43:00;;;;;;;0.10;0.10;;;15.00;99.90;;;;;;5037453;28;20856;-84
2020/12/22 11:45:25;;;;;;;0.10;0.10;;;14.90;99.90;;;;;;5014018;28;20179;-84
2020/12/22 11:47:51;;;;;;;0.10;0.10;;;15.00;99.90;;;;;;5038764;28;20194;-85
2020/12/22 11:50:17;;;;;;;0.10;0.10;;;15.00;99.90;;;;;;5023394;28;20182;-85
2020/12/22 11:52:43;;;;;;;0.10;0.10;;;15.00;99.90;;;;;;5015512;28;20210;-84
2020/12/22 11:55:08;;;;;;;0.27;0.27;;;15.00;99.90;;;;;;5029815;28;20198;-85
2020/12/22 11:57:34;;;;;;;0.10;0.10;;;14.90;99.90;;;;;;5014105;28;20274;-85
2020/12/22 11:59:59;;;;;;;0.10;0.10;;;14.90;99.90;;;;;;5036733;28;20175;-85
2020/12/22 12:02:26;;;;;;;0.10;0.10;;;14.90;99.90;;;;;;5031826;28;20298;-84
2020/12/22 12:04:51;;;;;;;0.10;0.10;;;14.90;99.90;;;;;;5019393;28;20194;-85
2020/12/22 12:07:17;;;;;;;0.10;0.10;;;14.90;99.90;;;;;;5026211;28;20248;-85
2020/12/22 12:09:42;;;;;;;0.10;0.10;;;14.90;99.90;;;;;;5038845;28;20185;-86
2020/12/22 12:12:10;;;;;;;0.20;0.13;;;14.80;99.90;;;;;;5035025;28;20214;-84
2020/12/22 12:14:36;;;;;;;0.10;0.10;;;14.90;99.90;;;;;;5013151;28;20174;-84
2020/12/22 12:17:02;;;;;;;0.10;0.10;;;14.80;99.90;;;;;;5032623;28;20190;-84
2020/12/22 12:19:32;;;;;;;0.10;0.10;;;14.90;99.90;;;;;;5021721;28;20233;-83
2020/12/22 12:21:58;;;;;;;0.10;0.10;;;14.90;99.90;;;;;;5021965;28;20279;-84
2020/12/22 12:24:24;;;;;;;0.13;0.13;;;14.90;99.90;;;;;;5038963;28;20181;-84
2020/12/22 12:26:49;;;;;;;0.10;0.10;;;15.00;99.90;;;;;;5031702;28;20204;-84
2020/12/22 12:29:15;;;;;;;0.10;0.10;;;14.90;99.90;;;;;;5030790;28;20191;-83
2020/12/22 12:31:41;;;;;;;0.10;0.10;;;14.90;99.90;;;;;;5029075;28;20238;-84
2020/12/22 12:34:08;;;;;;;0.10;0.10;;;15.00;99.90;;;;;;5014054;28;20201;-84
2020/12/22 12:36:34;;;;;;;0.10;0.10;;;15.00;99.90;;;;;;5014704;28;20663;-84
2020/12/22 12:39:00;;;;;;;0.10;0.10;;;15.10;99.90;;;;;;5011837;28;20174;-84
2020/12/22 12:41:26;;;;;;;0.10;0.10;;;15.10;99.90;;;;;;5031587;28;20182;-84
2020/12/22 12:43:51;;;;;;;0.10;0.10;;;15.20;99.90;;;;;;5013977;28;20266;-84
2020/12/22 12:46:17;;;;;;;0.10;0.10;;;15.20;99.90;;;;;;5011538;28;20208;-84
2020/12/22 12:48:43;;;;;;;0.10;0.10;;;15.20;99.90;;;;;;5009530;28;20183;-84